KHYS/HYS METAR and TAF weather

Enter ICAO airport designator
Station Type Date Time Source
KHYS METAR 2018/12/15 19:56 UTC NOAA

KHYS 151956Z AUTO 21012KT 10SM CLR 13/M07 A3008 RMK AO2 SLP200 T01331072


Station Type Date Time Source
KHYS Decoded METAR 2018/12/15 19:56 UTC NOAA

Hays, Hays Regional Airport, KS, United States (KHYS) 38-51N 099-16W
Dec 15, 2018 - 02:56 PM EST / 2018.12.15 1956 UTC
Wind: from the SSW (210 degrees) at 14 MPH (12 KT):0
Visibility: 10 mile(s):0
Sky conditions: clear
Temperature: 55.9 F (13.3 C)
Dew Point: 19.0 F (-7.2 C)
Relative Humidity: 23%
Pressure (altimeter): 30.08 in. Hg (1018 hPa)
ob: KHYS 151956Z AUTO 21012KT 10SM CLR 13/M07 A3008 RMK AO2 SLP200 T01331072
cycle: 20

Station Type Date Time Source
KHYS TAF 2018/12/15 18:28 UTC NOAA

TAF KHYS 151725Z 1518/1618 20010KT P6SM FEW200
FM160600 30010KT P6SM SCT200


Example: see airport list